Detalii statie AGRIND TASNAD [0000197A]

Toti senzorii

Date Temperatura solului [C]Precipitatii [mm]Voltaj baterie [mV]Leaf Wetness [Min]HC Air temperature [C]HC Relative humidity [%]Punctul de roua [C]
medieminmaxsumaultimatimpmedieminmaxmediemediemin
2019-04-19 19:00:00 11.7 11.6 11.8 0 7088 16.64 16.45 16.83 21.26 -6 -6.2
2019-04-19 19:10:00 11.6 11.6 11.6 0 6942 15.95 15.79 16.11 22.63 -5.6 -5.8
2019-04-19 19:20:00 11.7 11.6 11.9 0 6952 15.27 15.14 15.4 24.02 -5.3 -5.5
2019-04-19 19:30:00 11.7 11.7 11.7 0 6952 14.61 14.47 14.75 25.14 -5.3 -5.5
2019-04-19 19:40:00 11.6 11.6 11.6 0 6942 14.16 13.98 14.35 25.43 -5.5 -5.7
2019-04-19 19:50:00 11.5 11.5 11.6 0 6952 13.61 13.45 13.78 26.49 -5.4 -5.6
2019-04-19 20:00:00 11.5 11.5 11.6 0 6952 13.06 12.99 13.14 27.57 -5.4 -5.5
2019-04-19 20:10:00 11.5 11.5 11.6 0 6904 12.66 12.48 12.85 27.97 -5.5 -5.6
2019-04-19 20:20:00 11.4 11.4 11.5 0 6922 12.17 12.17 12.18 28.79 -5.7 -5.7
2019-04-19 20:30:00 11.4 11.4 11.4 0 6932 12.42 12.32 12.53 28.34 -5.5 -5.6
2019-04-19 20:40:00 11.3 11.2 11.4 0 6922 11.96 11.85 12.08 29.03 -5.6 -5.8
2019-04-19 20:50:00 11.2 11.1 11.4 0 6932 11.99 11.74 12.25 29.32 -5.6 -5.6
2019-04-19 21:00:00 11.3 11.3 11.3 0 6932 11.06 10.87 11.25 32.12 -5.1 -5.2
2019-04-19 21:10:00 11.3 11.3 11.3 0 6884 10.67 10.67 10.67 34.29 -4.5 -4.5
2019-04-19 21:20:00 11.2 11.2 11.2 0 6904 10.54 10.3 10.79 34.82 -4.4 -4.4
2019-04-19 21:30:00 11 11 11.1 0 6904 10.39 10.16 10.62 35.79 -4.1 -4.2
2019-04-19 21:40:00 11.1 11 11.2 0 6914 10.62 10.35 10.9 35.18 -4.3 -4.4
2019-04-19 21:50:00 11.1 11 11.2 0 6914 9.79 9.7 9.88 37.69 -4.1 -4.2
2019-04-19 22:00:00 11 10.9 11.1 0 6914 9.41 9.38 9.44 39.29 -3.7 -3.8
2019-04-19 22:10:00 11 10.9 11.1 0 6864 9.46 9.39 9.54 39.46 -3.7 -3.8
2019-04-19 22:20:00 10.9 10.9 11 0 6894 9.57 9.53 9.61 39.24 -3.6 -3.6
2019-04-19 22:30:00 10.7 10.7 10.7 0 6894 9.27 9.23 9.32 39.95 -3.7 -3.8
2019-04-19 22:40:00 10.8 10.8 10.8 0 6904 9.42 9.35 9.5 39.25 -3.9 -4
2019-04-19 22:50:00 10.7 10.7 10.8 0 6894 9.33 9.27 9.39 39.26 -3.8 -3.9
2019-04-19 23:00:00 10.8 10.8 10.9 0 6904 9.64 9.47 9.81 38.47 -4.1 -4.1
2019-04-19 23:10:00 10.7 10.7 10.7 0 6864 9.89 9.88 9.91 37.88 -3.8 -4
2019-04-19 23:20:00 10.6 10.6 10.7 0 6874 9.54 9.39 9.69 38.89 -3.8 -3.9
2019-04-19 23:30:00 10.6 10.6 10.6 0 6874 7.83 6.79 8.88 44.04 -3.8 -3.9
2019-04-19 23:40:00 10.5 10.4 10.6 0 6884 5.94 5.79 6.1 51.38 -3.3 -3.4
2019-04-19 23:50:00 10.5 10.5 10.6 0 6884 5.79 5.65 5.93 53.72 -2.9 -3.1
2019-04-20 00:00:00 10.4 10.3 10.5 0 6894 5.88 5.79 5.97 53.59 -2.9 -3
2019-04-20 00:10:00 10.4 10.3 10.5 0 6816 4.88 4.67 5.1 56.88 -2.9 -3.1
2019-04-20 00:20:00 10.2 10.2 10.3 0 6844 4.58 4.55 4.62 59.91 -2.5 -2.6
2019-04-20 00:30:00 10.2 10.2 10.2 0 6854 4.62 4.58 4.67 60.27 -2.4 -2.5
2019-04-20 00:40:00 10.2 10.2 10.2 0 6864 4.26 4.2 4.33 61.4 -2.5 -2.7
2019-04-20 00:50:00 10.1 10.1 10.2 0 6854 4.31 4.21 4.42 62.22 -2.3 -2.3
2019-04-20 01:00:00 10.2 10.2 10.3 0 6864 4.26 4.16 4.36 61.94 -2.4 -2.4
2019-04-20 01:10:00 10 10 10 0 6816 4 3.92 4.09 63.38 -2.4 -2.5
2019-04-20 01:20:00 10.1 10.1 10.1 0 6834 3.79 3.78 3.8 64.48 -2.3 -2.4
2019-04-20 01:30:00 10 9.9 10.1 0 6844 3.59 3.48 3.7 64.74 -2.5 -2.6
2019-04-20 01:40:00 9.9 9.9 10 0 6854 3.28 3.24 3.32 66.63 -2.2 -2.3
2019-04-20 01:50:00 10 10 10 0 6844 2.97 2.93 3.02 68.09 -2.3 -2.4
2019-04-20 02:00:00 9.9 9.9 10 0 6854 3.11 3.03 3.2 67.39 -2.4 -2.4
2019-04-20 02:10:00 9.7 9.6 9.8 0 6806 3.21 3.12 3.31 65.67 -2.5 -2.5
2019-04-20 02:20:00 9.8 9.8 9.9 0 6826 3.09 3.06 3.13 66.34 -2.5 -2.6
2019-04-20 02:30:00 9.7 9.7 9.7 0 6826 3.19 2.95 3.44 65.68 -2.6 -3.1
2019-04-20 02:40:00 9.7 9.6 9.8 0 6844 3.24 2.79 3.7 63.22 -3.1 -3.7
2019-04-20 02:50:00 9.6 9.6 9.7 0 6834 1.69 1.48 1.9 70.14 -3.1 -3.3